Time;durP1;ratioP1;P1;durP2;ratioP2;P2;SDS_P1;SDS_P2;PMS_P1;PMS_P2;Temp;Humidity;BMP_temperature;BMP_pressure;BME280_temperature;BME280_humidity;BME280_pressure;Samples;Min_cycle;Max_cycle;Signal;HPM_P1;HPM_P2
2023/06/01 00:02:16;;;;;;;9.13;2.97;;;;;;;20.68;48.71;99757.03;4445494;32;34073;-67
2023/06/01 00:04:44;;;;;;;6.45;2.72;;;;;;;20.68;48.69;99750.75;4443594;32;33295;-67
2023/06/01 00:07:11;;;;;;;7.07;2.62;;;;;;;20.73;48.27;99747.47;4443676;32;33717;-70
2023/06/01 00:09:39;;;;;;;4.40;2.53;;;;;;;20.71;47.76;99750.37;4450791;32;35025;-68
2023/06/01 00:12:07;;;;;;;7.95;2.85;;;;;;;20.49;48.14;99743.84;4444839;32;34265;-70
2023/06/01 00:14:36;;;;;;;4.50;2.62;;;;;;;20.54;47.99;99743.34;4447728;32;34848;-69
2023/06/01 00:17:05;;;;;;;6.80;3.55;;;;;;;20.55;47.85;99743.19;4442487;32;33443;-68
2023/06/01 00:19:34;;;;;;;4.32;2.80;;;;;;;20.59;47.80;99743.66;4447059;32;35183;-70
2023/06/01 00:22:02;;;;;;;3.50;2.22;;;;;;;20.32;49.57;99742.22;4447309;32;33753;-70
2023/06/01 00:24:29;;;;;;;11.00;2.53;;;;;;;20.52;48.72;99732.66;4448959;32;33514;-69
2023/06/01 00:26:57;;;;;;;6.65;2.97;;;;;;;20.61;48.17;99736.16;4447584;32;34614;-68
2023/06/01 00:29:25;;;;;;;4.45;2.45;;;;;;;20.68;48.03;99740.72;4449660;32;34052;-68
2023/06/01 00:31:52;;;;;;;5.85;3.22;;;;;;;20.72;48.08;99733.03;4449597;32;34143;-67
2023/06/01 00:34:20;;;;;;;3.62;2.50;;;;;;;20.76;48.25;99730.78;4446574;32;33590;-68
2023/06/01 00:36:48;;;;;;;4.47;2.80;;;;;;;20.76;48.53;99734.34;4445960;32;33592;-67
2023/06/01 00:39:15;;;;;;;3.67;2.05;;;;;;;20.72;48.20;99738.47;4446706;32;34228;-67
2023/06/01 00:41:43;;;;;;;13.05;2.95;;;;;;;20.69;47.82;99736.94;4448388;32;34849;-69
2023/06/01 00:44:11;;;;;;;4.12;2.70;;;;;;;20.63;47.56;99728.66;4447344;32;33511;-66
2023/06/01 00:46:38;;;;;;;7.53;3.83;;;;;;;20.53;47.41;99730.78;4447656;32;33810;-68
2023/06/01 00:49:06;;;;;;;3.45;1.85;;;;;;;20.48;47.49;99733.97;4446930;32;33838;-66
2023/06/01 00:51:35;;;;;;;4.35;2.60;;;;;;;20.45;47.52;99735.22;4454708;32;33839;-66
2023/06/01 00:54:03;;;;;;;4.97;2.50;;;;;;;20.38;47.62;99736.09;4440397;32;34836;-69
2023/06/01 00:56:32;;;;;;;4.05;2.28;;;;;;;20.41;47.53;99728.41;4446891;32;33701;-68
2023/06/01 00:59:00;;;;;;;4.25;2.67;;;;;;;20.40;47.50;99731.34;4446727;32;34325;-67
2023/06/01 01:01:28;;;;;;;4.25;2.30;;;;;;;20.35;47.57;99728.28;4442183;32;35097;-68
2023/06/01 01:04:00;;;;;;;5.75;3.10;;;;;;;20.35;47.41;99731.88;4445431;32;32454;-66
2023/06/01 01:06:45;;;;;;;4.35;2.00;;;;;;;20.36;47.33;99725.41;4443201;32;34746;-68
2023/06/01 01:09:24;;;;;;;4.57;2.05;;;;;;;20.38;47.26;99725.22;4433802;32;33120;-68
2023/06/01 01:11:58;;;;;;;3.80;2.58;;;;;;;20.24;47.63;99730.38;4441769;32;34059;-71
2023/06/01 01:14:38;;;;;;;3.47;2.05;;;;;;;20.02;47.69;99726.56;4446824;32;35090;-70
2023/06/01 01:17:24;;;;;;;3.72;2.20;;;;;;;20.09;47.53;99726.72;4446468;32;33599;-68
2023/06/01 01:20:08;;;;;;;7.32;2.62;;;;;;;20.05;47.60;99721.81;4447944;32;34016;-69
2023/06/01 01:22:56;;;;;;;4.57;2.00;;;;;;;19.83;47.82;99723.44;4440346;32;34224;-69
2023/06/01 01:25:45;;;;;;;8.45;2.40;;;;;;;19.92;47.70;99714.22;4443358;32;33950;-70
2023/06/01 01:28:31;;;;;;;11.63;2.97;;;;;;;19.87;47.90;99719.34;4448170;32;33737;-69
2023/06/01 01:31:00;;;;;;;5.95;2.50;;;;;;;19.76;48.10;99723.28;4436731;32;32809;-71
2023/06/01 01:33:28;;;;;;;3.85;2.12;;;;;;;19.89;47.63;99715.44;4447101;32;34076;-67
2023/06/01 01:35:56;;;;;;;3.92;2.15;;;;;;;19.93;47.65;99721.34;4438226;32;32412;-68
2023/06/01 01:38:24;;;;;;;6.37;2.80;;;;;;;19.92;47.75;99717.78;4445063;32;33160;-71
2023/06/01 01:40:52;;;;;;;5.90;2.72;;;;;;;20.00;47.64;99719.66;4447675;32;33939;-67
2023/06/01 01:43:21;;;;;;;4.60;2.25;;;;;;;19.96;47.84;99712.84;4447490;32;34022;-69
2023/06/01 01:45:56;;;;;;;4.25;2.25;;;;;;;19.93;47.91;99727.63;4443523;32;34769;-70
2023/06/01 01:48:26;;;;;;;;;;;;;;;19.90;47.85;99721.69;4447185;32;33611;-70
2023/06/01 01:51:18;;;;;;;5.57;2.50;;;;;;;19.86;47.53;99720.38;4444203;32;34357;-67
2023/06/01 01:53:47;;;;;;;4.72;2.25;;;;;;;19.64;47.82;99719.25;4447215;32;37354;-68
2023/06/01 01:56:15;;;;;;;5.65;2.72;;;;;;;19.61;47.95;99717.69;4442311;32;33543;-68
2023/06/01 01:58:43;;;;;;;3.08;1.98;;;;;;;19.70;47.71;99713.97;4438090;32;33525;-70
2023/06/01 02:01:11;;;;;;;5.35;2.90;;;;;;;19.72;47.46;99703.78;4448405;32;35056;-69
2023/06/01 02:03:39;;;;;;;5.20;3.00;;;;;;;19.62;47.77;99708.53;4445082;32;34085;-70
2023/06/01 02:06:06;;;;;;;4.57;2.10;;;;;;;19.58;47.79;99707.16;4443811;32;33427;-69
2023/06/01 02:08:34;;;;;;;4.00;2.47;;;;;;;19.40;48.23;99712.81;4449617;32;32806;-66
2023/06/01 02:11:01;;;;;;;4.53;2.28;;;;;;;19.53;47.81;99709.56;4448650;32;33727;-69
2023/06/01 02:13:30;;;;;;;4.05;1.87;;;;;;;19.58;47.51;99707.16;4444292;32;34118;-70
2023/06/01 02:15:57;;;;;;;3.62;2.45;;;;;;;19.46;48.27;99706.69;4450447;32;34421;-71
2023/06/01 02:18:25;;;;;;;3.35;2.20;;;;;;;19.63;47.78;99702.06;4448893;32;33423;-69
2023/06/01 02:20:53;;;;;;;5.32;2.47;;;;;;;19.68;47.97;99698.88;4448816;32;35039;-69
2023/06/01 02:23:20;;;;;;;5.60;2.37;;;;;;;19.71;47.95;99704.81;4442236;32;34851;-71
2023/06/01 02:25:48;;;;;;;6.78;3.10;;;;;;;19.71;47.51;99698.50;4435602;32;33367;-73
2023/06/01 02:28:16;;;;;;;7.47;2.22;;;;;;;19.75;47.24;99700.72;4441848;32;33760;-68
2023/06/01 02:30:43;;;;;;;4.05;2.37;;;;;;;19.79;47.35;99693.06;4449830;32;33576;-69
2023/06/01 02:33:11;;;;;;;4.40;2.55;;;;;;;19.71;47.70;99687.66;4447133;32;35365;-70
2023/06/01 02:35:39;;;;;;;2.87;1.83;;;;;;;19.71;47.66;99687.66;4448675;32;34421;-74
2023/06/01 02:38:06;;;;;;;3.50;1.92;;;;;;;19.52;48.04;99697.03;4445054;32;34954;-70
2023/06/01 02:40:35;;;;;;;3.20;1.58;;;;;;;19.60;47.50;99691.56;4446269;32;33853;-70
2023/06/01 02:43:03;;;;;;;7.50;1.85;;;;;;;19.61;47.44;99689.69;4450626;32;33986;-72
2023/06/01 02:45:30;;;;;;;8.27;2.17;;;;;;;19.63;47.11;99693.09;4449764;32;33900;-70
2023/06/01 02:47:58;;;;;;;5.50;2.28;;;;;;;19.61;46.96;99693.25;4448137;32;33826;-68
2023/06/01 02:50:26;;;;;;;4.40;2.25;;;;;;;19.48;47.38;99690.22;4443589;32;35064;-68
2023/06/01 02:52:54;;;;;;;5.72;2.22;;;;;;;19.49;47.32;99686.53;4450138;32;33830;-72
2023/06/01 02:55:21;;;;;;;3.67;1.98;;;;;;;19.16;48.74;99694.69;4450278;32;32179;-66
2023/06/01 02:57:49;;;;;;;7.90;2.37;;;;;;;19.29;48.15;99686.91;4445070;32;34517;-70
2023/06/01 03:00:17;;;;;;;3.70;2.45;;;;;;;19.41;48.20;99689.22;4443809;32;33961;-68
2023/06/01 03:02:45;;;;;;;5.40;2.17;;;;;;;19.50;47.45;99693.63;4445405;32;35168;-68
2023/06/01 03:05:15;;;;;;;6.00;3.00;;;;;;;19.53;47.27;99682.44;4445326;32;33428;-69
2023/06/01 03:07:45;;;;;;;7.95;3.03;;;;;;;19.62;47.36;99689.53;4436653;32;32639;-67
2023/06/01 03:10:13;;;;;;;7.55;2.72;;;;;;;19.64;47.48;99692.09;4437551;32;33468;-68
2023/06/01 03:12:42;;;;;;;5.18;2.67;;;;;;;19.69;47.28;99693.25;4447159;32;33868;-68
2023/06/01 03:15:10;;;;;;;3.55;2.12;;;;;;;19.71;47.13;99693.94;4450574;32;33500;-68
2023/06/01 03:17:38;;;;;;;5.95;2.60;;;;;;;19.76;47.08;99690.69;4453420;32;33838;-69
2023/06/01 03:20:14;;;;;;;5.72;2.58;;;;;;;19.75;47.27;99698.00;4441863;32;34394;-68
2023/06/01 03:22:45;;;;;;;2.58;1.95;;;;;;;19.72;47.12;99692.91;4451250;32;33827;-67
2023/06/01 03:25:13;;;;;;;7.62;2.58;;;;;;;19.26;48.46;99692.66;4453104;32;33418;-68
2023/06/01 03:27:41;;;;;;;8.27;2.95;;;;;;;19.71;47.27;99695.78;4452084;32;33958;-70
2023/06/01 03:30:10;;;;;;;12.55;3.22;;;;;;;19.66;47.27;99690.91;4449428;32;34087;-68
2023/06/01 03:32:41;;;;;;;4.20;2.55;;;;;;;19.64;47.60;99687.50;4451148;32;33058;-67
2023/06/01 03:35:09;;;;;;;6.68;2.40;;;;;;;19.75;47.34;99689.00;4452919;32;34466;-69
2023/06/01 03:37:40;;;;;;;6.18;2.35;;;;;;;19.82;46.91;99690.00;4444531;32;33587;-69
2023/06/01 03:40:11;;;;;;;3.40;1.92;;;;;;;19.92;46.67;99689.78;4446246;32;35517;-76
2023/06/01 03:42:44;;;;;;;3.28;1.95;;;;;;;19.97;46.62;99685.53;4450017;32;34117;-71
2023/06/01 03:45:12;;;;;;;4.72;2.58;;;;;;;19.96;46.44;99685.69;4446805;32;33540;-71
2023/06/01 03:47:40;;;;;;;4.55;2.35;;;;;;;19.87;46.29;99679.47;4445352;32;33338;-71
2023/06/01 03:50:09;;;;;;;3.53;1.65;;;;;;;20.07;45.86;99684.47;4445225;32;34165;-72
2023/06/01 03:52:37;;;;;;;5.72;2.25;;;;;;;20.02;45.96;99684.97;4451567;32;35225;-68
2023/06/01 03:55:08;;;;;;;3.75;2.03;;;;;;;20.20;45.85;99687.44;4451500;32;32551;-67
2023/06/01 03:57:40;;;;;;;8.15;2.70;;;;;;;20.31;45.71;99686.19;4452233;32;34666;-68
2023/06/01 04:00:18;;;;;;;4.72;1.80;;;;;;;20.36;45.75;99679.19;4443272;32;35090;-66
2023/06/01 04:02:55;;;;;;;6.15;2.22;;;;;;;20.43;45.48;99676.59;4445547;32;33751;-70
2023/06/01 04:05:25;;;;;;;2.90;1.73;;;;;;;20.51;45.48;99679.28;4447566;32;33476;-73
2023/06/01 04:07:54;;;;;;;6.45;2.78;;;;;;;20.50;45.25;99680.28;4445159;32;34410;-72
2023/06/01 04:10:22;;;;;;;4.12;2.40;;;;;;;20.61;45.08;99682.63;4449569;32;34828;-69
2023/06/01 04:12:50;;;;;;;3.85;2.15;;;;;;;20.68;45.05;99683.59;4451871;32;34031;-69
2023/06/01 04:15:20;;;;;;;5.12;2.75;;;;;;;20.70;44.65;99689.69;4451990;32;33262;-70
2023/06/01 04:17:47;;;;;;;4.62;2.05;;;;;;;20.79;44.26;99685.03;4440505;32;33685;-70
2023/06/01 04:20:17;;;;;;;5.10;2.30;;;;;;;20.85;44.45;99681.59;4433972;32;174870;-70
2023/06/01 04:22:45;;;;;;;4.68;2.15;;;;;;;20.86;44.84;99683.28;4447496;32;33903;-69
2023/06/01 04:25:17;;;;;;;3.87;1.75;;;;;;;20.94;44.44;99690.53;4450111;32;33526;-72
2023/06/01 04:27:47;;;;;;;4.32;1.87;;;;;;;21.01;44.30;99687.94;4448960;32;33675;-69
2023/06/01 04:30:16;;;;;;;5.47;2.17;;;;;;;21.21;43.62;99686.38;4447911;32;35242;-69
2023/06/01 04:32:45;;;;;;;4.37;2.30;;;;;;;21.34;43.65;99685.72;4449011;32;33163;-72
2023/06/01 04:35:14;;;;;;;6.22;3.00;;;;;;;21.48;43.25;99690.41;4449095;32;33441;-71
2023/06/01 04:37:43;;;;;;;4.55;2.65;;;;;;;21.59;43.51;99692.66;4448463;32;32401;-70
2023/06/01 04:40:13;;;;;;;6.10;2.42;;;;;;;21.65;43.38;99690.22;4444994;32;34164;-73
2023/06/01 04:42:42;;;;;;;6.72;2.28;;;;;;;21.69;43.47;99689.63;4442540;32;34953;-71
2023/06/01 04:45:10;;;;;;;6.80;1.70;;;;;;;21.78;42.38;99688.50;4449457;32;32521;-70
2023/06/01 04:47:39;;;;;;;6.05;1.77;;;;;;;21.80;41.96;99689.19;4447047;32;33600;-71
2023/06/01 04:50:09;;;;;;;6.53;3.03;;;;;;;21.89;42.31;99695.34;4450360;32;32857;-72
2023/06/01 04:52:39;;;;;;;12.55;1.65;;;;;;;21.94;43.04;99698.38;4441823;32;34948;-72
2023/06/01 04:55:07;;;;;;;8.32;2.75;;;;;;;22.02;42.91;99695.56;4437447;32;33587;-69
2023/06/01 04:57:36;;;;;;;3.72;2.20;;;;;;;21.90;43.10;99691.62;4446255;32;34974;-72
2023/06/01 05:00:09;;;;;;;5.87;2.67;;;;;;;22.10;42.33;99694.59;4436111;32;33730;-69
2023/06/01 05:02:38;;;;;;;6.75;2.75;;;;;;;22.21;42.61;99694.13;4445924;32;34006;-70
2023/06/01 05:05:07;;;;;;;6.75;2.30;;;;;;;22.33;42.53;99694.47;4446412;32;34407;-72
2023/06/01 05:07:36;;;;;;;6.60;2.65;;;;;;;22.41;42.10;99690.81;4441461;32;32859;-67
2023/06/01 05:10:08;;;;;;;3.22;1.73;;;;;;;22.50;42.88;99695.09;4447658;32;34127;-70
2023/06/01 05:12:37;;;;;;;6.07;2.20;;;;;;;22.67;43.33;99698.44;4448832;32;35188;-68
2023/06/01 05:15:08;;;;;;;5.95;2.00;;;;;;;22.84;43.58;99696.28;4447881;32;34661;-68
2023/06/01 05:17:38;;;;;;;8.27;1.98;;;;;;;22.93;43.55;99697.84;4448475;32;33896;-71
2023/06/01 05:20:08;;;;;;;4.40;1.87;;;;;;;23.16;42.60;99700.38;4446624;32;34400;-67
2023/06/01 05:22:37;;;;;;;4.32;1.92;;;;;;;23.26;41.97;99706.34;4449275;32;32964;-70
2023/06/01 05:25:07;;;;;;;4.43;1.83;;;;;;;23.30;41.78;99702.16;4445969;32;34902;-69
2023/06/01 05:27:36;;;;;;;6.97;2.87;;;;;;;23.52;41.16;99707.56;4447866;32;33862;-67
2023/06/01 05:30:05;;;;;;;4.40;2.15;;;;;;;23.42;39.73;99697.00;4447489;32;32387;-70
2023/06/01 05:32:32;;;;;;;3.90;2.17;;;;;;;23.46;39.29;99701.00;4450169;32;35315;-69
2023/06/01 05:35:01;;;;;;;9.23;2.92;;;;;;;23.49;39.68;99701.47;4449207;32;33298;-68
2023/06/01 05:37:28;;;;;;;6.57;2.08;;;;;;;23.49;40.70;99696.00;4444164;32;32731;-70
2023/06/01 05:39:56;;;;;;;7.03;2.60;;;;;;;23.56;39.75;99692.47;4448286;32;35046;-69
2023/06/01 05:42:24;;;;;;;13.07;2.85;;;;;;;23.61;36.82;99693.56;4452289;32;35308;-70
2023/06/01 05:44:51;;;;;;;11.43;2.00;;;;;;;23.60;37.59;99691.03;4440964;32;33489;-71
2023/06/01 05:47:19;;;;;;;3.75;2.40;;;;;;;23.62;38.48;99692.50;4446389;32;33754;-75
2023/06/01 05:49:47;;;;;;;6.82;2.25;;;;;;;23.55;36.40;99698.97;4444140;32;35048;-68
2023/06/01 05:52:15;;;;;;;6.15;2.72;;;;;;;23.68;35.98;99701.78;4442022;32;34097;-68
2023/06/01 05:54:43;;;;;;;5.00;2.20;;;;;;;23.69;35.47;99698.03;4449097;32;33038;-69
2023/06/01 05:57:11;;;;;;;7.12;2.33;;;;;;;23.68;35.49;99701.78;4442382;32;33633;-70
2023/06/01 05:59:39;;;;;;;4.18;2.25;;;;;;;23.69;34.83;99703.50;4443066;32;32874;-69
2023/06/01 06:02:06;;;;;;;5.15;2.53;;;;;;;23.65;34.97;99700.31;4442361;32;33713;-70
2023/06/01 06:04:34;;;;;;;6.47;2.90;;;;;;;23.75;35.45;99690.94;4448239;32;33970;-68
2023/06/01 06:07:02;;;;;;;5.03;2.47;;;;;;;23.94;34.10;99690.19;4452191;32;35323;-69
2023/06/01 06:09:29;;;;;;;5.45;2.08;;;;;;;23.48;35.50;99693.47;4445745;32;32547;-68
2023/06/01 06:11:57;;;;;;;3.72;1.67;;;;;;;23.48;35.94;99698.94;4447023;32;34176;-72
2023/06/01 06:14:25;;;;;;;11.77;2.78;;;;;;;23.70;34.76;99692.38;4440428;32;33512;-68
2023/06/01 06:16:52;;;;;;;6.35;2.97;;;;;;;23.82;34.87;99691.81;4444711;32;34984;-69
2023/06/01 06:19:20;;;;;;;7.68;2.83;;;;;;;23.52;35.87;99700.22;4449142;32;33860;-66
2023/06/01 06:21:48;;;;;;;5.97;2.15;;;;;;;23.90;35.82;99688.94;4443763;32;34008;-65
2023/06/01 06:24:15;;;;;;;7.15;2.70;;;;;;;24.18;34.75;99702.53;4449281;32;32279;-70
2023/06/01 06:26:43;;;;;;;7.53;2.80;;;;;;;23.96;36.01;99698.22;4446573;32;34245;-66
2023/06/01 06:29:10;;;;;;;4.75;2.33;;;;;;;24.17;36.69;99693.47;4450148;32;34844;-66
2023/06/01 06:31:38;;;;;;;6.30;2.42;;;;;;;24.43;35.62;99702.00;4450568;32;33620;-67
2023/06/01 06:34:06;;;;;;;5.07;1.73;;;;;;;24.69;35.45;99703.94;4450616;32;33208;-67
2023/06/01 06:36:33;;;;;;;5.28;2.12;;;;;;;24.39;34.65;99696.91;4450067;32;34632;-66
2023/06/01 06:39:01;;;;;;;5.53;2.17;;;;;;;24.67;33.78;99695.97;4452093;32;33898;-67
2023/06/01 06:41:28;;;;;;;9.25;3.35;;;;;;;24.75;34.02;99694.91;4448642;32;32555;-67
2023/06/01 06:43:57;;;;;;;4.05;2.12;;;;;;;24.63;34.63;99697.44;4450473;32;33356;-67
2023/06/01 06:46:24;;;;;;;6.00;2.35;;;;;;;24.83;33.74;99701.03;4440370;32;33896;-67
2023/06/01 06:48:52;;;;;;;5.10;2.53;;;;;;;24.98;33.49;99692.62;4437771;32;34643;-66
2023/06/01 06:51:21;;;;;;;5.30;2.22;;;;;;;24.92;33.85;99690.75;4447834;32;34063;-67
2023/06/01 06:53:48;;;;;;;7.28;2.65;;;;;;;24.87;34.09;99691.34;4453446;32;33588;-66
2023/06/01 06:56:16;;;;;;;6.55;2.30;;;;;;;25.03;34.34;99694.75;4451511;32;33692;-66
2023/06/01 06:58:45;;;;;;;3.95;2.17;;;;;;;24.94;33.83;99693.25;4452064;32;33849;-69
2023/06/01 07:01:26;;;;;;;6.35;2.37;;;;;;;25.32;33.02;99690.75;4443172;32;32941;-68
2023/06/01 07:03:55;;;;;;;9.23;2.55;;;;;;;25.30;32.74;99690.16;4450787;32;33839;-67
2023/06/01 07:06:23;;;;;;;6.18;2.12;;;;;;;25.30;33.07;99684.66;4449781;32;33984;-67
2023/06/01 07:08:50;;;;;;;5.07;2.25;;;;;;;25.46;32.53;99692.44;4451546;32;33733;-67
2023/06/01 07:11:18;;;;;;;10.45;2.92;;;;;;;25.41;31.85;99689.50;4441974;32;34190;-67
2023/06/01 07:13:46;;;;;;;7.95;2.42;;;;;;;24.97;32.15;99688.19;4443319;32;35314;-67
2023/06/01 07:16:13;;;;;;;6.53;2.83;;;;;;;25.05;33.33;99695.38;4450952;32;33945;-66
2023/06/01 07:18:41;;;;;;;8.10;2.78;;;;;;;25.20;32.81;99689.72;4448775;32;33613;-66
2023/06/01 07:21:09;;;;;;;7.65;2.72;;;;;;;25.32;33.27;99686.13;4451681;32;34081;-66
2023/06/01 07:23:36;;;;;;;5.68;2.47;;;;;;;25.53;31.70;99698.75;4451174;32;33212;-67
2023/06/01 07:26:04;;;;;;;6.35;2.00;;;;;;;25.48;32.82;99697.69;4451940;32;33948;-68
2023/06/01 07:28:32;;;;;;;5.68;2.25;;;;;;;25.47;33.28;99696.03;4448956;32;33040;-67
2023/06/01 07:31:00;;;;;;;7.68;2.40;;;;;;;25.82;32.24;99693.88;4449306;32;35183;-67
2023/06/01 07:33:31;;;;;;;6.72;2.67;;;;;;;25.51;32.04;99689.91;4447453;32;32316;-67
2023/06/01 07:35:58;;;;;;;6.20;2.10;;;;;;;25.56;31.54;99698.34;4445886;32;33853;-66
2023/06/01 07:38:26;;;;;;;4.05;1.98;;;;;;;25.59;31.05;99690.75;4450358;32;33804;-67
2023/06/01 07:40:54;;;;;;;7.53;3.28;;;;;;;25.84;31.84;99685.44;4441942;32;34961;-68
2023/06/01 07:43:21;;;;;;;6.75;2.70;;;;;;;25.78;32.30;99685.22;4447224;32;33097;-67
2023/06/01 07:45:49;;;;;;;3.65;1.70;;;;;;;25.99;32.45;99683.28;4451667;32;33827;-66
2023/06/01 07:48:16;;;;;;;6.55;2.20;;;;;;;26.16;31.60;99687.22;4443175;32;34048;-67
2023/06/01 07:50:44;;;;;;;12.43;1.95;;;;;;;26.07;32.02;99680.31;4445936;32;32777;-67
2023/06/01 07:53:12;;;;;;;6.85;2.05;;;;;;;26.24;29.38;99681.47;4442202;32;35070;-67
2023/06/01 07:55:40;;;;;;;5.85;1.95;;;;;;;25.86;31.38;99675.09;4446844;32;34888;-67
2023/06/01 07:58:07;;;;;;;6.75;2.17;;;;;;;25.82;30.89;99687.56;4449813;32;33883;-66
2023/06/01 08:00:35;;;;;;;4.90;2.12;;;;;;;25.94;30.87;99680.31;4449172;32;34037;-65
2023/06/01 08:03:05;;;;;;;6.10;1.92;;;;;;;26.00;31.19;99679.47;4443505;32;33363;-66
2023/06/01 08:05:37;;;;;;;9.25;2.28;;;;;;;26.32;31.19;99676.78;4443085;32;34197;-66
2023/06/01 08:08:06;;;;;;;3.97;1.77;;;;;;;26.37;32.13;99679.75;4446447;32;32317;-66
2023/06/01 08:10:33;;;;;;;5.50;2.20;;;;;;;26.21;30.35;99687.41;4443360;32;33746;-66
2023/06/01 08:13:02;;;;;;;4.43;1.85;;;;;;;26.17;29.94;99682.59;4443013;32;33608;-66
2023/06/01 08:15:30;;;;;;;5.12;2.00;;;;;;;26.24;30.33;99678.75;4442514;32;33646;-66
2023/06/01 08:17:58;;;;;;;7.32;2.87;;;;;;;26.01;30.06;99675.69;4441982;32;33945;-67
2023/06/01 08:20:27;;;;;;;4.40;2.25;;;;;;;26.25;29.86;99679.56;4446515;32;34070;-67
2023/06/01 08:22:55;;;;;;;4.82;2.17;;;;;;;26.33;30.30;99670.28;4450259;32;35187;-67
2023/06/01 08:25:23;;;;;;;5.87;2.50;;;;;;;26.18;29.97;99671.38;4448022;32;33060;-67
2023/06/01 08:27:51;;;;;;;6.72;2.50;;;;;;;26.61;29.36;99661.66;4451021;32;33682;-67
2023/06/01 08:30:19;;;;;;;4.85;2.28;;;;;;;26.47;30.16;99669.12;4448246;32;34299;-67
2023/06/01 08:32:48;;;;;;;7.75;2.70;;;;;;;26.65;30.34;99669.25;4442325;32;33654;-67
2023/06/01 08:35:16;;;;;;;4.57;2.50;;;;;;;26.85;30.09;99674.59;4451787;32;33520;-67
2023/06/01 08:37:44;;;;;;;8.25;2.47;;;;;;;26.90;30.69;99671.16;4449530;32;33902;-66
2023/06/01 08:40:12;;;;;;;4.95;1.70;;;;;;;27.07;30.94;99663.25;4447832;32;34795;-66
2023/06/01 08:43:09;;;;;;;4.70;2.15;;;;;;;26.71;30.50;99662.88;4448257;32;33461;-67
2023/06/01 08:45:38;;;;;;;5.22;2.33;;;;;;;26.79;29.75;99671.91;4440523;32;33645;-67
2023/06/01 08:48:08;;;;;;;6.20;2.53;;;;;;;27.15;28.53;99677.56;4447219;32;33722;-67
2023/06/01 08:50:36;;;;;;;6.28;2.47;;;;;;;27.14;28.57;99666.81;4446541;32;33339;-68
2023/06/01 08:53:05;;;;;;;8.48;2.85;;;;;;;26.81;29.73;99665.13;4444229;32;32449;-69
2023/06/01 08:55:33;;;;;;;4.95;2.33;;;;;;;27.39;29.10;99662.12;4444750;32;34040;-67
2023/06/01 08:58:00;;;;;;;5.18;2.12;;;;;;;27.35;28.92;99662.78;4448761;32;33642;-68
2023/06/01 09:00:30;;;;;;;6.32;2.28;;;;;;;27.43;28.19;99656.19;4451211;32;34570;-67
2023/06/01 09:02:57;;;;;;;5.12;2.05;;;;;;;27.19;29.70;99653.22;4444867;32;33624;-67
2023/06/01 09:05:25;;;;;;;8.82;2.78;;;;;;;26.81;29.05;99650.56;4443276;32;35032;-67
2023/06/01 09:07:54;;;;;;;7.93;2.87;;;;;;;26.98;29.23;99659.09;4449549;32;33772;-68
2023/06/01 09:10:25;;;;;;;6.32;2.72;;;;;;;27.22;29.61;99657.44;4448972;32;34198;-67
2023/06/01 09:12:54;;;;;;;5.43;2.30;;;;;;;27.31;28.64;99654.16;4450965;32;32041;-68
2023/06/01 09:15:22;;;;;;;6.72;2.65;;;;;;;27.87;28.87;99646.84;4453597;32;33729;-68
2023/06/01 09:17:51;;;;;;;4.28;2.22;;;;;;;27.76;28.67;99642.06;4451238;32;33643;-67
2023/06/01 09:20:25;;;;;;;6.75;3.20;;;;;;;27.83;28.72;99643.72;4445296;32;35114;-68
2023/06/01 09:22:53;;;;;;;9.85;2.90;;;;;;;27.81;28.23;99642.25;4447078;32;33356;-68
2023/06/01 09:25:28;;;;;;;5.50;2.62;;;;;;;27.90;28.65;99645.53;4444773;32;33650;-67
2023/06/01 09:27:57;;;;;;;6.62;3.25;;;;;;;28.10;28.92;99635.13;4444787;32;34398;-67
2023/06/01 09:30:37;;;;;;;6.70;2.92;;;;;;;28.26;28.67;99637.22;4447361;32;33938;-69
2023/06/01 09:33:15;;;;;;;5.75;2.67;;;;;;;28.27;28.12;99630.66;4447618;32;34709;-69
2023/06/01 09:35:48;;;;;;;6.45;3.00;;;;;;;28.21;29.15;99641.75;4446706;32;34250;-70
2023/06/01 09:38:24;;;;;;;9.18;3.12;;;;;;;28.44;28.33;99641.88;4443233;32;33903;-70
2023/06/01 09:41:00;;;;;;;8.43;3.97;;;;;;;28.45;27.66;99637.22;4452268;32;34035;-68
2023/06/01 09:43:27;;;;;;;10.32;2.67;;;;;;;28.23;29.11;99640.44;4450755;32;33904;-68
2023/06/01 09:46:13;;;;;;;6.65;3.05;;;;;;;28.39;27.48;99636.22;4446862;32;33683;-69
2023/06/01 09:48:44;;;;;;;5.93;2.87;;;;;;;28.25;27.06;99640.19;4446922;32;34295;-70
2023/06/01 09:51:29;;;;;;;6.65;3.05;;;;;;;28.98;26.96;99639.97;4451908;32;33553;-70
2023/06/01 09:53:57;;;;;;;6.80;3.15;;;;;;;28.92;27.29;99646.41;4453570;32;33859;-70
2023/06/01 09:56:25;;;;;;;8.75;2.95;;;;;;;28.90;27.02;99643.09;4452157;32;34041;-70
2023/06/01 09:58:57;;;;;;;6.10;3.20;;;;;;;29.19;27.09;99637.75;4449927;32;34938;-70
2023/06/01 10:01:28;;;;;;;6.30;3.00;;;;;;;29.42;26.89;99636.91;4446334;32;34182;-69
2023/06/01 10:03:56;;;;;;;7.28;2.65;;;;;;;29.68;26.35;99635.59;4448951;32;33580;-69
2023/06/01 10:06:24;;;;;;;7.50;2.97;;;;;;;29.77;25.68;99631.38;4442526;32;34691;-69
2023/06/01 10:08:52;;;;;;;6.70;3.22;;;;;;;29.62;26.34;99629.13;4445709;32;33955;-70
2023/06/01 10:11:20;;;;;;;7.72;3.35;;;;;;;29.67;26.41;99637.53;4452797;32;35022;-70
2023/06/01 10:13:47;;;;;;;5.95;2.67;;;;;;;29.69;26.66;99626.22;4453250;32;33947;-70
2023/06/01 10:16:15;;;;;;;11.23;3.95;;;;;;;29.70;26.02;99627.94;4447435;32;34654;-69
2023/06/01 10:18:44;;;;;;;5.97;2.65;;;;;;;29.83;26.70;99622.13;4444940;32;34004;-70
2023/06/01 10:21:11;;;;;;;7.05;2.87;;;;;;;30.16;25.94;99620.59;4457985;32;33423;-70
2023/06/01 10:23:40;;;;;;;6.07;3.15;;;;;;;30.30;25.82;99610.09;4447093;32;34789;-70
2023/06/01 10:26:12;;;;;;;11.57;3.25;;;;;;;30.10;26.79;99616.03;4451950;32;34760;-68
2023/06/01 10:28:40;;;;;;;5.95;2.95;;;;;;;30.15;27.12;99613.41;4451691;32;33778;-71
2023/06/01 10:31:41;;;;;;;6.87;2.90;;;;;;;30.09;26.97;99608.88;4446919;32;33978;-69
2023/06/01 10:34:10;;;;;;;8.18;3.22;;;;;;;29.77;27.21;99600.22;4438400;32;33584;-69
2023/06/01 10:36:53;;;;;;;9.25;4.10;;;;;;;30.71;25.68;99594.28;4453891;32;35664;-70
2023/06/01 10:39:24;;;;;;;6.18;2.95;;;;;;;30.97;25.06;99590.88;4448901;32;33810;-70
2023/06/01 10:41:53;;;;;;;8.80;3.95;;;;;;;30.82;26.22;99597.00;4451608;32;34113;-70
2023/06/01 10:44:40;;;;;;;7.07;3.65;;;;;;;30.75;26.81;99595.44;4448012;32;33289;-69
2023/06/01 10:47:11;;;;;;;8.20;3.67;;;;;;;30.44;26.03;99588.56;4442852;32;33976;-70
2023/06/01 10:50:01;;;;;;;7.97;3.30;;;;;;;31.05;25.28;99590.47;4446815;32;34392;-68
2023/06/01 10:52:38;;;;;;;9.25;3.58;;;;;;;31.01;25.77;99586.53;4441387;32;35030;-70
2023/06/01 10:55:05;;;;;;;7.10;3.58;;;;;;;31.07;25.72;99590.19;4450241;32;32001;-69
2023/06/01 10:57:34;;;;;;;10.98;4.15;;;;;;;31.16;24.36;99585.91;4448858;32;33861;-68
2023/06/01 11:00:26;;;;;;;8.00;3.35;;;;;;;31.14;24.88;99576.19;4449994;32;34815;-67
2023/06/01 11:03:03;;;;;;;10.75;3.58;;;;;;;30.85;25.44;99570.78;4449361;32;34242;-67
2023/06/01 11:05:52;;;;;;;7.05;3.47;;;;;;;31.28;25.33;99574.75;4451238;32;33797;-67
2023/06/01 11:08:20;;;;;;;6.95;3.90;;;;;;;31.40;25.28;99569.16;4445925;32;33876;-67
2023/06/01 11:10:51;;;;;;;8.32;3.35;;;;;;;31.19;24.90;99571.59;4451126;32;35131;-67
2023/06/01 11:13:41;;;;;;;5.78;3.65;;;;;;;31.12;26.33;99568.16;4454148;32;33953;-68
2023/06/01 11:16:10;;;;;;;5.68;2.78;;;;;;;31.12;25.81;99567.34;4448078;32;34297;-67
2023/06/01 11:18:41;;;;;;;7.75;3.37;;;;;;;30.98;26.46;99564.94;4444437;32;34972;-67
2023/06/01 11:21:10;;;;;;;7.45;3.15;;;;;;;30.94;25.74;99562.91;4447729;32;35147;-67
2023/06/01 11:23:38;;;;;;;10.88;3.62;;;;;;;30.96;25.91;99561.56;4445157;32;33876;-67
2023/06/01 11:26:07;;;;;;;6.85;3.50;;;;;;;30.81;26.36;99550.28;4451406;32;33925;-67
2023/06/01 11:28:35;;;;;;;6.60;4.00;;;;;;;31.02;26.53;99548.69;4448755;32;33465;-68
2023/06/01 11:31:03;;;;;;;9.75;3.50;;;;;;;30.79;26.25;99542.25;4445432;32;34161;-67
2023/06/01 11:33:31;;;;;;;8.85;3.78;;;;;;;31.10;26.73;99539.94;4446464;32;32723;-69
2023/06/01 11:36:04;;;;;;;7.95;3.70;;;;;;;30.78;26.56;99539.72;4447693;32;32904;-69
2023/06/01 11:38:38;;;;;;;8.85;3.58;;;;;;;31.25;25.76;99529.09;4445466;32;34710;-68
2023/06/01 11:41:07;;;;;;;7.62;3.30;;;;;;;30.69;26.61;99531.00;4446713;32;35678;-68
2023/06/01 11:43:35;;;;;;;7.37;3.70;;;;;;;30.99;26.87;99533.44;4451731;32;32905;-68
2023/06/01 11:46:07;;;;;;;5.75;3.22;;;;;;;30.60;26.62;99529.75;4447408;32;33693;-68
2023/06/01 11:49:01;;;;;;;7.53;3.72;;;;;;;30.88;26.64;99528.81;4445401;32;35156;-70